Darstellungsparameter: Aktuell verwendete Einstellungen:
Skalierung der Graphiken ... ?
xyx+y,   Skalierungsfaktor:      Skalierung: Modus: x, Faktor: 1
Darstellungszeitraum ... ?
Vom - - bis: - -   Zeitraum: 01.12.2016 - 01.12.2016
Min/Max/Avg-Anzeige ... ?
Zeige MMA aktuell
Zeige MMA Monat
Zeige MMA alles
Zeige --A aktuell
Zeige --A Monat
Zeige --A alles
Keine MMA-Anzeige
MMA:
Average (ber die Originaldaten)
MMA-Basis: 01.12.2016 - 01.12.2016
Quicknavigation für Darstellung... ?
Tage:      1T, 2T, 3T, 5T -1T -2T -3T -5T +1T +2T +3T +5T
Wochen: 1W, 2W, 3W -1W -2W -3W +1W +2W +3W
Monate: 1M, 3M, 6M -1M -3M -6M +1M +3M +6M
Jahre:    1J, 3J, 5J, 10J -1J -3J -5J -10J +1J +3J +5J +10J
Nutze für die Darstellung ... ?
Originaldaten oder Mittelwerte auf ...
Stundenbasis Tagesbasis Wochenbasis
Monatsbasis Jahresbasis      Datenbasis: Original-Daten
Darstellen als:
Statistik (Auto) Statistik J:M      Darstellung:
Zur Graphik,    zurück zur Übersicht aller Sensoren.
 
Tabellarische Datenbersicht: ?
 
Sensor: Nr:Datum:Temp:Abs-Feuchte:Windchill:Wind:
Aussen-T/F 1 01-12-2016 00:00:00 0.9 C 4.38 g/m*3 0.9 C 4.8 km/h
2 01-12-2016 00:05:00 0.9 C 4.43 g/m*3 0.9 C 4.8 km/h
3 01-12-2016 00:10:00 0.9 C 4.38 g/m*3 0.9 C 4.8 km/h
4 01-12-2016 00:15:00 0.9 C 4.38 g/m*3 0.9 C 4.8 km/h
5 01-12-2016 00:20:00 1 C 4.31 g/m*3 1 C 4.8 km/h
6 01-12-2016 00:25:00 1.1 C 4.34 g/m*3 1.1 C 4.8 km/h
7 01-12-2016 00:30:00 1.2 C 4.31 g/m*3 -0.8 C 6.4 km/h
8 01-12-2016 00:35:00 1.3 C 4.24 g/m*3 -1.24 C 8.1 km/h
9 01-12-2016 00:40:00 1.4 C 4.21 g/m*3 -1.57 C 9.7 km/h
10 01-12-2016 00:45:00 1.6 C 4.27 g/m*3 -1.33 C 9.7 km/h
11 01-12-2016 00:50:00 1.7 C 4.25 g/m*3 -2.51 C 16.1 km/h
12 01-12-2016 00:55:00 1.8 C 4.28 g/m*3 -1.09 C 9.7 km/h
13 01-12-2016 01:00:00 1.9 C 4.3 g/m*3 -0.54 C 8.1 km/h
14 01-12-2016 01:05:00 1.9 C 4.3 g/m*3 0.01 C 6.4 km/h
15 01-12-2016 01:10:00 2 C 4.33 g/m*3 -0.42 C 8.1 km/h
16 01-12-2016 01:15:00 2 C 4.45 g/m*3 0.13 C 6.4 km/h
17 01-12-2016 01:20:00 2 C 4.33 g/m*3 -0.42 C 8.1 km/h
18 01-12-2016 01:25:00 2 C 4.33 g/m*3 -1.23 C 11.3 km/h
19 01-12-2016 01:30:00 2.1 C 4.31 g/m*3 -1.44 C 12.9 km/h
20 01-12-2016 01:35:00 2.2 C 4.34 g/m*3 -0.61 C 9.7 km/h
21 01-12-2016 01:40:00 2.2 C 4.34 g/m*3 -0.18 C 8.1 km/h
22 01-12-2016 01:45:00 2.2 C 4.39 g/m*3 -0.99 C 11.3 km/h
23 01-12-2016 01:50:00 2.2 C 4.39 g/m*3 -0.61 C 9.7 km/h
24 01-12-2016 01:55:00 2.2 C 4.39 g/m*3 -0.61 C 9.7 km/h
25 01-12-2016 02:00:00 2.3 C 4.42 g/m*3 -0.87 C 11.3 km/h
Sensor: Nr:Datum:Temp:Abs-Feuchte:Windchill:Wind:
Aussen-T/F 26 01-12-2016 02:05:00 2.3 C 4.42 g/m*3 -0.07 C 8.1 km/h
27 01-12-2016 02:10:00 2.3 C 4.42 g/m*3 -1.2 C 12.9 km/h
28 01-12-2016 02:15:00 2.4 C 4.45 g/m*3 -0.37 C 9.7 km/h
29 01-12-2016 02:20:00 2.4 C 4.45 g/m*3 -0.37 C 9.7 km/h
30 01-12-2016 02:25:00 2.4 C 4.45 g/m*3 -0.37 C 9.7 km/h
31 01-12-2016 02:30:00 2.5 C 4.48 g/m*3 -0.62 C 11.3 km/h
32 01-12-2016 02:35:00 2.6 C 4.57 g/m*3 -0.5 C 11.3 km/h
33 01-12-2016 02:40:00 2.6 C 4.57 g/m*3 -0.5 C 11.3 km/h
34 01-12-2016 02:45:00 2.7 C 4.6 g/m*3 -0.38 C 11.3 km/h
35 01-12-2016 02:50:00 2.7 C 4.66 g/m*3 -0.38 C 11.3 km/h
36 01-12-2016 02:55:00 2.7 C 4.72 g/m*3 0.94 C 6.4 km/h
37 01-12-2016 03:00:00 2.7 C 4.72 g/m*3 -0.71 C 12.9 km/h
38 01-12-2016 03:05:00 2.7 C 4.66 g/m*3 -0.38 C 11.3 km/h
39 01-12-2016 03:10:00 2.7 C 4.66 g/m*3 -0.38 C 11.3 km/h
40 01-12-2016 03:15:00 2.7 C 4.72 g/m*3 -0.38 C 11.3 km/h
41 01-12-2016 03:20:00 2.8 C 4.75 g/m*3 0.1 C 9.7 km/h
42 01-12-2016 03:25:00 2.8 C 4.75 g/m*3 -1.14 C 16.1 km/h
43 01-12-2016 03:30:00 2.8 C 4.75 g/m*3 -1.14 C 16.1 km/h
44 01-12-2016 03:35:00 2.9 C 4.78 g/m*3 -0.14 C 11.3 km/h
45 01-12-2016 03:40:00 2.9 C 4.78 g/m*3 -0.14 C 11.3 km/h
46 01-12-2016 03:45:00 2.8 C 4.75 g/m*3 -0.26 C 11.3 km/h
47 01-12-2016 03:50:00 2.8 C 4.75 g/m*3 0.1 C 9.7 km/h
48 01-12-2016 03:55:00 2.8 C 4.81 g/m*3 1.05 C 6.4 km/h
49 01-12-2016 04:00:00 2.8 C 4.81 g/m*3 0.52 C 8.1 km/h
50 01-12-2016 04:05:00 2.8 C 4.81 g/m*3 -0.26 C 11.3 km/h
Sensor: Nr:Datum:Temp:Abs-Feuchte:Windchill:Wind:
Aussen-T/F 51 01-12-2016 04:10:00 2.8 C 4.81 g/m*3 -0.59 C 12.9 km/h
52 01-12-2016 04:15:00 2.8 C 4.81 g/m*3 0.1 C 9.7 km/h
53 01-12-2016 04:20:00 2.8 C 4.87 g/m*3 0.52 C 8.1 km/h
54 01-12-2016 04:25:00 2.8 C 4.87 g/m*3 -0.26 C 11.3 km/h
55 01-12-2016 04:30:00 2.8 C 4.87 g/m*3 -0.26 C 11.3 km/h
56 01-12-2016 04:35:00 2.8 C 4.87 g/m*3 0.52 C 8.1 km/h
57 01-12-2016 04:40:00 2.8 C 4.81 g/m*3 0.1 C 9.7 km/h
58 01-12-2016 04:45:00 2.8 C 4.87 g/m*3 0.52 C 8.1 km/h
59 01-12-2016 04:50:00 2.8 C 4.87 g/m*3 1.05 C 6.4 km/h
60 01-12-2016 04:55:00 2.8 C 4.87 g/m*3 -0.26 C 11.3 km/h
61 01-12-2016 05:00:00 2.8 C 4.87 g/m*3 0.52 C 8.1 km/h
62 01-12-2016 05:05:00 2.8 C 4.81 g/m*3 0.52 C 8.1 km/h
63 01-12-2016 05:10:00 2.8 C 4.87 g/m*3 0.1 C 9.7 km/h
64 01-12-2016 05:15:00 2.8 C 4.87 g/m*3 0.1 C 9.7 km/h
65 01-12-2016 05:20:00 2.9 C 4.9 g/m*3 0.22 C 9.7 km/h
66 01-12-2016 05:25:00 2.9 C 4.9 g/m*3 0.22 C 9.7 km/h
67 01-12-2016 05:30:00 2.9 C 4.9 g/m*3 -0.14 C 11.3 km/h
68 01-12-2016 05:35:00 2.9 C 4.9 g/m*3 -0.14 C 11.3 km/h
69 01-12-2016 05:40:00 2.8 C 4.93 g/m*3 -0.26 C 11.3 km/h
70 01-12-2016 05:45:00 2.8 C 4.93 g/m*3 0.52 C 8.1 km/h
71 01-12-2016 05:50:00 2.8 C 4.93 g/m*3 0.52 C 8.1 km/h
72 01-12-2016 05:55:00 2.8 C 4.93 g/m*3 -0.26 C 11.3 km/h
73 01-12-2016 06:00:00 2.8 C 4.93 g/m*3 0.1 C 9.7 km/h
74 01-12-2016 06:05:00 2.8 C 4.93 g/m*3 -0.26 C 11.3 km/h
75 01-12-2016 06:10:00 2.8 C 4.93 g/m*3 0.1 C 9.7 km/h
Sensor: Nr:Datum:Temp:Abs-Feuchte:Windchill:Wind:
Aussen-T/F 76 01-12-2016 06:15:00 2.8 C 4.93 g/m*3 -0.26 C 11.3 km/h
77 01-12-2016 06:20:00 2.8 C 4.93 g/m*3 -0.26 C 11.3 km/h
78 01-12-2016 06:25:00 2.8 C 4.93 g/m*3 -0.26 C 11.3 km/h
79 01-12-2016 06:30:00 2.8 C 4.99 g/m*3 1.05 C 6.4 km/h
80 01-12-2016 06:35:00 2.8 C 4.99 g/m*3 1.05 C 6.4 km/h
81 01-12-2016 06:40:00 2.8 C 4.99 g/m*3 0.52 C 8.1 km/h
82 01-12-2016 06:45:00 2.8 C 4.99 g/m*3 0.52 C 8.1 km/h
83 01-12-2016 06:50:00 2.8 C 4.99 g/m*3 0.52 C 8.1 km/h
84 01-12-2016 06:55:00 2.8 C 5.04 g/m*3 1.05 C 6.4 km/h
85 01-12-2016 07:00:00 2.9 C 5.08 g/m*3 -0.76 C 14.5 km/h
86 01-12-2016 07:05:00 2.9 C 5.08 g/m*3 0.64 C 8.1 km/h
87 01-12-2016 07:10:00 2.9 C 5.08 g/m*3 0.64 C 8.1 km/h
88 01-12-2016 07:15:00 3 C 5.11 g/m*3 1.28 C 6.4 km/h
89 01-12-2016 07:20:00 3 C 5.05 g/m*3 -0.02 C 11.3 km/h
90 01-12-2016 07:25:00 2.9 C 5.02 g/m*3 -0.76 C 14.5 km/h
91 01-12-2016 07:30:00 2.9 C 4.96 g/m*3 0.22 C 9.7 km/h
92 01-12-2016 07:35:00 2.8 C 4.93 g/m*3 0.52 C 8.1 km/h
93 01-12-2016 07:40:00 2.8 C 4.93 g/m*3 0.1 C 9.7 km/h
94 01-12-2016 07:45:00 2.8 C 4.87 g/m*3 0.1 C 9.7 km/h
95 01-12-2016 07:50:00 2.7 C 4.84 g/m*3 0.4 C 8.1 km/h
96 01-12-2016 07:55:00 2.7 C 4.84 g/m*3 0.4 C 8.1 km/h
97 01-12-2016 08:00:00 2.7 C 4.84 g/m*3 -0.38 C 11.3 km/h
98 01-12-2016 08:05:00 2.7 C 4.84 g/m*3 -0.38 C 11.3 km/h
99 01-12-2016 08:10:00 2.7 C 4.84 g/m*3 -0.02 C 9.7 km/h
100 01-12-2016 08:15:00 2.7 C 4.78 g/m*3 -0.38 C 11.3 km/h
Sensor: Nr:Datum:Temp:Abs-Feuchte:Windchill:Wind:
Aussen-T/F 101 01-12-2016 08:20:00 2.6 C 4.8 g/m*3 -0.5 C 11.3 km/h
102 01-12-2016 08:25:00 2.7 C 4.78 g/m*3 -0.71 C 12.9 km/h
103 01-12-2016 08:30:00 2.6 C 4.8 g/m*3 -0.14 C 9.7 km/h
104 01-12-2016 08:35:00 2.7 C 4.84 g/m*3 -0.71 C 12.9 km/h
105 01-12-2016 08:40:00 2.6 C 4.75 g/m*3 -0.5 C 11.3 km/h
106 01-12-2016 08:45:00 2.6 C 4.75 g/m*3 -0.5 C 11.3 km/h
107 01-12-2016 08:50:00 2.6 C 4.75 g/m*3 -0.14 C 9.7 km/h
108 01-12-2016 08:55:00 2.6 C 4.75 g/m*3 -1.12 C 14.5 km/h
109 01-12-2016 09:00:00 2.6 C 4.75 g/m*3 -0.83 C 12.9 km/h
110 01-12-2016 09:05:00 2.6 C 4.75 g/m*3 -0.5 C 11.3 km/h
111 01-12-2016 09:10:00 2.6 C 4.75 g/m*3 -0.83 C 12.9 km/h
112 01-12-2016 09:15:00 2.6 C 4.75 g/m*3 -0.83 C 12.9 km/h
113 01-12-2016 09:20:00 2.6 C 4.75 g/m*3 -0.14 C 9.7 km/h
114 01-12-2016 09:25:00 2.6 C 4.75 g/m*3 -0.5 C 11.3 km/h
115 01-12-2016 09:30:00 2.6 C 4.75 g/m*3 -0.5 C 11.3 km/h
116 01-12-2016 09:35:00 2.6 C 4.75 g/m*3 -0.5 C 11.3 km/h
117 01-12-2016 09:40:00 2.7 C 4.78 g/m*3 -0.38 C 11.3 km/h
118 01-12-2016 09:45:00 2.7 C 4.78 g/m*3 -0.02 C 9.7 km/h
119 01-12-2016 09:50:00 2.7 C 4.78 g/m*3 -0.02 C 9.7 km/h
120 01-12-2016 09:55:00 2.7 C 4.78 g/m*3 -0.38 C 11.3 km/h
121 01-12-2016 10:00:00 2.7 C 4.78 g/m*3 -0.02 C 9.7 km/h
122 01-12-2016 10:05:00 2.7 C 4.78 g/m*3 -0.71 C 12.9 km/h
123 01-12-2016 10:10:00 2.7 C 4.78 g/m*3 -0.38 C 11.3 km/h
124 01-12-2016 10:15:00 2.7 C 4.78 g/m*3 -0.02 C 9.7 km/h
125 01-12-2016 10:20:00 2.7 C 4.78 g/m*3 -0.02 C 9.7 km/h
Sensor: Nr:Datum:Temp:Abs-Feuchte:Windchill:Wind:
Aussen-T/F 126 01-12-2016 10:25:00 2.7 C 4.78 g/m*3 -0.02 C 9.7 km/h
127 01-12-2016 10:30:00 2.7 C 4.78 g/m*3 -0.71 C 12.9 km/h
128 01-12-2016 10:35:00 2.8 C 4.81 g/m*3 -0.26 C 11.3 km/h
129 01-12-2016 10:40:00 2.8 C 4.81 g/m*3 0.1 C 9.7 km/h
130 01-12-2016 10:45:00 2.8 C 4.81 g/m*3 -0.59 C 12.9 km/h
131 01-12-2016 10:50:00 2.8 C 4.81 g/m*3 -0.59 C 12.9 km/h
132 01-12-2016 10:55:00 2.8 C 4.81 g/m*3 -0.26 C 11.3 km/h
133 01-12-2016 11:00:00 2.8 C 4.81 g/m*3 -0.59 C 12.9 km/h
134 01-12-2016 11:05:00 2.8 C 4.81 g/m*3 -0.88 C 14.5 km/h
135 01-12-2016 11:10:00 2.9 C 4.84 g/m*3 -0.14 C 11.3 km/h
136 01-12-2016 11:15:00 2.9 C 4.9 g/m*3 -0.76 C 14.5 km/h
137 01-12-2016 11:20:00 3 C 4.93 g/m*3 -0.34 C 12.9 km/h
138 01-12-2016 11:25:00 3 C 4.88 g/m*3 -0.34 C 12.9 km/h
139 01-12-2016 11:30:00 3 C 4.88 g/m*3 -1.14 C 17.7 km/h
140 01-12-2016 11:35:00 3 C 4.88 g/m*3 -0.9 C 16.1 km/h
141 01-12-2016 11:40:00 3.1 C 4.91 g/m*3 0.46 C 9.7 km/h
142 01-12-2016 11:45:00 3.1 C 4.91 g/m*3 0.46 C 9.7 km/h
143 01-12-2016 11:50:00 3.1 C 4.91 g/m*3 0.46 C 9.7 km/h
144 01-12-2016 11:55:00 3.1 C 4.91 g/m*3 0.46 C 9.7 km/h
145 01-12-2016 12:00:00 3.1 C 4.91 g/m*3 0.1 C 11.3 km/h
146 01-12-2016 12:05:00 3.1 C 4.91 g/m*3 -0.77 C 16.1 km/h
147 01-12-2016 12:10:00 3.1 C 4.91 g/m*3 -0.77 C 16.1 km/h
148 01-12-2016 12:15:00 3.1 C 4.91 g/m*3 0.1 C 11.3 km/h
149 01-12-2016 12:20:00 3.1 C 4.91 g/m*3 -0.22 C 12.9 km/h
150 01-12-2016 12:25:00 3.1 C 4.91 g/m*3 -0.22 C 12.9 km/h
Sensor: Nr:Datum:Temp:Abs-Feuchte:Windchill:Wind:
Aussen-T/F 151 01-12-2016 12:30:00 3.2 C 4.94 g/m*3 0.58 C 9.7 km/h
152 01-12-2016 12:35:00 3.2 C 5 g/m*3 0.22 C 11.3 km/h
153 01-12-2016 12:40:00 3.2 C 5 g/m*3 0.22 C 11.3 km/h
154 01-12-2016 12:45:00 3.3 C 5.04 g/m*3 0.34 C 11.3 km/h
155 01-12-2016 12:50:00 3.3 C 5.04 g/m*3 0.34 C 11.3 km/h
156 01-12-2016 12:55:00 3.4 C 5.07 g/m*3 0.82 C 9.7 km/h
157 01-12-2016 13:00:00 3.5 C 5.1 g/m*3 0.27 C 12.9 km/h
158 01-12-2016 13:05:00 3.6 C 5.14 g/m*3 3.6 C 3.2 km/h
159 01-12-2016 13:10:00 3.7 C 5.17 g/m*3 2.09 C 6.4 km/h
160 01-12-2016 13:15:00 3.7 C 5.11 g/m*3 2.09 C 6.4 km/h
161 01-12-2016 13:20:00 3.7 C 5.17 g/m*3 2.09 C 6.4 km/h
162 01-12-2016 13:25:00 3.7 C 5.17 g/m*3 2.09 C 6.4 km/h
163 01-12-2016 13:30:00 3.7 C 5.17 g/m*3 2.09 C 6.4 km/h
164 01-12-2016 13:35:00 3.7 C 5.17 g/m*3 3.7 C 4.8 km/h
165 01-12-2016 13:40:00 3.7 C 5.17 g/m*3 3.7 C 4.8 km/h
166 01-12-2016 13:45:00 3.7 C 5.17 g/m*3 1.58 C 8.1 km/h
167 01-12-2016 13:50:00 3.6 C 5.14 g/m*3 1.98 C 6.4 km/h
168 01-12-2016 13:55:00 3.6 C 5.14 g/m*3 1.46 C 8.1 km/h
169 01-12-2016 14:00:00 3.6 C 5.2 g/m*3 0.7 C 11.3 km/h
170 01-12-2016 14:05:00 3.6 C 5.2 g/m*3 1.46 C 8.1 km/h
171 01-12-2016 14:10:00 3.6 C 5.2 g/m*3 1.06 C 9.7 km/h
172 01-12-2016 14:15:00 3.6 C 5.2 g/m*3 1.06 C 9.7 km/h
173 01-12-2016 14:20:00 3.6 C 5.2 g/m*3 0.39 C 12.9 km/h
174 01-12-2016 14:25:00 3.7 C 5.3 g/m*3 0.82 C 11.3 km/h
175 01-12-2016 14:30:00 3.7 C 5.3 g/m*3 1.18 C 9.7 km/h
Sensor: Nr:Datum:Temp:Abs-Feuchte:Windchill:Wind:
Aussen-T/F 176 01-12-2016 14:35:00 3.7 C 5.3 g/m*3 1.58 C 8.1 km/h
177 01-12-2016 14:40:00 3.8 C 5.27 g/m*3 1.29 C 9.7 km/h
178 01-12-2016 14:45:00 3.8 C 5.33 g/m*3 0.94 C 11.3 km/h
179 01-12-2016 14:50:00 3.8 C 5.33 g/m*3 1.29 C 9.7 km/h
180 01-12-2016 14:55:00 3.9 C 5.37 g/m*3 1.06 C 11.3 km/h
181 01-12-2016 15:00:00 4 C 5.4 g/m*3 1.18 C 11.3 km/h
182 01-12-2016 15:05:00 4.1 C 5.44 g/m*3 0.47 C 16.1 km/h
183 01-12-2016 15:10:00 4.2 C 5.48 g/m*3 1.77 C 9.7 km/h
184 01-12-2016 15:15:00 4.2 C 5.48 g/m*3 0.84 C 14.5 km/h
185 01-12-2016 15:20:00 4.3 C 5.51 g/m*3 1.24 C 12.9 km/h
186 01-12-2016 15:25:00 4.3 C 5.51 g/m*3 1.55 C 11.3 km/h
187 01-12-2016 15:30:00 4.3 C 5.51 g/m*3 1.55 C 11.3 km/h
188 01-12-2016 15:35:00 4.3 C 5.51 g/m*3 1.89 C 9.7 km/h
189 01-12-2016 15:40:00 4.2 C 5.48 g/m*3 2.17 C 8.1 km/h
190 01-12-2016 15:45:00 4.2 C 5.54 g/m*3 2.17 C 8.1 km/h
191 01-12-2016 15:50:00 4.2 C 5.54 g/m*3 1.77 C 9.7 km/h
192 01-12-2016 15:55:00 4.2 C 5.54 g/m*3 1.77 C 9.7 km/h
193 01-12-2016 16:00:00 4.1 C 5.5 g/m*3 1 C 12.9 km/h
194 01-12-2016 16:05:00 4.1 C 5.5 g/m*3 1 C 12.9 km/h
195 01-12-2016 16:10:00 4 C 5.47 g/m*3 0.88 C 12.9 km/h
196 01-12-2016 16:15:00 4 C 5.47 g/m*3 1.18 C 11.3 km/h
197 01-12-2016 16:20:00 4 C 5.53 g/m*3 1.53 C 9.7 km/h
198 01-12-2016 16:25:00 4 C 5.53 g/m*3 1.53 C 9.7 km/h
199 01-12-2016 16:30:00 4 C 5.53 g/m*3 1.53 C 9.7 km/h
200 01-12-2016 16:35:00 4 C 5.53 g/m*3 1.53 C 9.7 km/h
Sensor: Nr:Datum:Temp:Abs-Feuchte:Windchill:Wind:
Aussen-T/F 201 01-12-2016 16:40:00 4 C 5.59 g/m*3 1.53 C 9.7 km/h
202 01-12-2016 16:45:00 4 C 5.59 g/m*3 1.18 C 11.3 km/h
203 01-12-2016 16:50:00 4.1 C 5.63 g/m*3 1 C 12.9 km/h
204 01-12-2016 16:55:00 4.1 C 5.63 g/m*3 1.65 C 9.7 km/h
205 01-12-2016 17:00:00 4.1 C 5.63 g/m*3 2.05 C 8.1 km/h
206 01-12-2016 17:05:00 4.1 C 5.63 g/m*3 2.05 C 8.1 km/h
207 01-12-2016 17:10:00 4.1 C 5.63 g/m*3 1.31 C 11.3 km/h
208 01-12-2016 17:15:00 4.1 C 5.63 g/m*3 1.65 C 9.7 km/h
209 01-12-2016 17:20:00 4 C 5.59 g/m*3 1.93 C 8.1 km/h
210 01-12-2016 17:25:00 4 C 5.59 g/m*3 1.53 C 9.7 km/h
211 01-12-2016 17:30:00 4 C 5.59 g/m*3 1.93 C 8.1 km/h
212 01-12-2016 17:35:00 4 C 5.66 g/m*3 1.18 C 11.3 km/h
213 01-12-2016 17:40:00 4.1 C 5.7 g/m*3 1.65 C 9.7 km/h
214 01-12-2016 17:45:00 4.1 C 5.7 g/m*3 1 C 12.9 km/h
215 01-12-2016 17:50:00 4.1 C 5.7 g/m*3 1.31 C 11.3 km/h
216 01-12-2016 17:55:00 4.1 C 5.7 g/m*3 1.31 C 11.3 km/h
217 01-12-2016 18:00:00 4.2 C 5.73 g/m*3 2.17 C 8.1 km/h
218 01-12-2016 18:05:00 4.2 C 5.73 g/m*3 2.17 C 8.1 km/h
219 01-12-2016 18:10:00 4.2 C 5.73 g/m*3 1.77 C 9.7 km/h
220 01-12-2016 18:15:00 4.2 C 5.73 g/m*3 1.43 C 11.3 km/h
221 01-12-2016 18:20:00 4.3 C 5.77 g/m*3 1.89 C 9.7 km/h
222 01-12-2016 18:25:00 4.3 C 5.77 g/m*3 1.55 C 11.3 km/h
223 01-12-2016 18:30:00 4.3 C 5.77 g/m*3 1.55 C 11.3 km/h
224 01-12-2016 18:35:00 4.3 C 5.77 g/m*3 1.55 C 11.3 km/h
225 01-12-2016 18:40:00 4.3 C 5.77 g/m*3 1.89 C 9.7 km/h
Sensor: Nr:Datum:Temp:Abs-Feuchte:Windchill:Wind:
Aussen-T/F 226 01-12-2016 18:45:00 4.3 C 5.77 g/m*3 1.89 C 9.7 km/h
227 01-12-2016 18:50:00 4.3 C 5.77 g/m*3 1.55 C 11.3 km/h
228 01-12-2016 18:55:00 4.3 C 5.77 g/m*3 1.89 C 9.7 km/h
229 01-12-2016 19:00:00 4.3 C 5.77 g/m*3 1.24 C 12.9 km/h
230 01-12-2016 19:05:00 4.3 C 5.77 g/m*3 1.55 C 11.3 km/h
231 01-12-2016 19:10:00 4.3 C 5.84 g/m*3 2.29 C 8.1 km/h
232 01-12-2016 19:15:00 4.3 C 5.84 g/m*3 1.55 C 11.3 km/h
233 01-12-2016 19:20:00 4.3 C 5.77 g/m*3 2.29 C 8.1 km/h
234 01-12-2016 19:25:00 4.3 C 5.77 g/m*3 1.55 C 11.3 km/h
235 01-12-2016 19:30:00 4.3 C 5.84 g/m*3 1.55 C 11.3 km/h
236 01-12-2016 19:35:00 4.4 C 5.88 g/m*3 1.67 C 11.3 km/h
237 01-12-2016 19:40:00 4.4 C 5.88 g/m*3 2.4 C 8.1 km/h
238 01-12-2016 19:45:00 4.4 C 5.88 g/m*3 1.36 C 12.9 km/h
239 01-12-2016 19:50:00 4.4 C 5.88 g/m*3 1.36 C 12.9 km/h
240 01-12-2016 19:55:00 4.4 C 5.88 g/m*3 2.01 C 9.7 km/h
241 01-12-2016 20:00:00 4.5 C 5.92 g/m*3 1.79 C 11.3 km/h
242 01-12-2016 20:05:00 4.6 C 5.96 g/m*3 1.91 C 11.3 km/h
243 01-12-2016 20:10:00 4.6 C 5.96 g/m*3 1.91 C 11.3 km/h
244 01-12-2016 20:15:00 4.6 C 5.96 g/m*3 1.91 C 11.3 km/h
245 01-12-2016 20:20:00 4.6 C 5.96 g/m*3 1.91 C 11.3 km/h
246 01-12-2016 20:25:00 4.7 C 6 g/m*3 2.03 C 11.3 km/h
247 01-12-2016 20:30:00 4.7 C 6 g/m*3 2.37 C 9.7 km/h
248 01-12-2016 20:35:00 4.7 C 5.93 g/m*3 2.37 C 9.7 km/h
249 01-12-2016 20:40:00 4.7 C 5.93 g/m*3 2.03 C 11.3 km/h
250 01-12-2016 20:45:00 4.7 C 5.93 g/m*3 1.73 C 12.9 km/h
Sensor: Nr:Datum:Temp:Abs-Feuchte:Windchill:Wind:
Aussen-T/F 251 01-12-2016 20:50:00 4.7 C 6 g/m*3 4.7 C 4.8 km/h
252 01-12-2016 20:55:00 4.7 C 6 g/m*3 3.25 C 6.4 km/h
253 01-12-2016 21:00:00 4.7 C 5.93 g/m*3 4.7 C 4.8 km/h
254 01-12-2016 21:05:00 4.7 C 6 g/m*3 2.37 C 9.7 km/h
255 01-12-2016 21:10:00 4.7 C 6 g/m*3 2.37 C 9.7 km/h
256 01-12-2016 21:15:00 4.8 C 6.04 g/m*3 3.36 C 6.4 km/h
257 01-12-2016 21:20:00 4.8 C 5.97 g/m*3 2.87 C 8.1 km/h
258 01-12-2016 21:25:00 4.8 C 5.97 g/m*3 2.49 C 9.7 km/h
259 01-12-2016 21:30:00 4.8 C 5.97 g/m*3 4.8 C 4.8 km/h
260 01-12-2016 21:35:00 4.8 C 5.97 g/m*3 4.8 C 3.2 km/h
261 01-12-2016 21:40:00 4.8 C 5.97 g/m*3 4.8 C 4.8 km/h
262 01-12-2016 21:45:00 4.8 C 6.04 g/m*3 4.8 C 3.2 km/h
263 01-12-2016 21:50:00 4.8 C 6.04 g/m*3 2.87 C 8.1 km/h
264 01-12-2016 21:55:00 4.8 C 6.04 g/m*3 3.36 C 6.4 km/h
265 01-12-2016 22:00:00 4.8 C 6.04 g/m*3 4.8 C 4.8 km/h
266 01-12-2016 22:05:00 4.8 C 5.97 g/m*3 2.49 C 9.7 km/h
267 01-12-2016 22:10:00 4.8 C 5.97 g/m*3 4.8 C 4.8 km/h
268 01-12-2016 22:15:00 4.8 C 5.97 g/m*3 4.8 C 3.2 km/h
269 01-12-2016 22:20:00 4.8 C 6.04 g/m*3 4.8 C 3.2 km/h
270 01-12-2016 22:25:00 4.8 C 6.04 g/m*3 4.8 C 4.8 km/h
271 01-12-2016 22:30:00 4.7 C 6 g/m*3 3.25 C 6.4 km/h
272 01-12-2016 22:35:00 4.7 C 6 g/m*3 4.7 C 3.2 km/h
273 01-12-2016 22:40:00 4.7 C 6 g/m*3 4.7 C 3.2 km/h
274 01-12-2016 22:45:00 4.7 C 6 g/m*3 2.76 C 8.1 km/h
275 01-12-2016 22:50:00 4.7 C 6 g/m*3 4.7 C 4.8 km/h
Sensor: Nr:Datum:Temp:Abs-Feuchte:Windchill:Wind:
Aussen-T/F 276 01-12-2016 22:55:00 4.7 C 6 g/m*3 3.25 C 6.4 km/h
277 01-12-2016 23:00:00 4.7 C 6 g/m*3 2.37 C 9.7 km/h
278 01-12-2016 23:05:00 4.8 C 6.04 g/m*3 3.36 C 6.4 km/h
279 01-12-2016 23:10:00 4.8 C 6.04 g/m*3 2.87 C 8.1 km/h
280 01-12-2016 23:15:00 4.8 C 6.04 g/m*3 2.87 C 8.1 km/h
281 01-12-2016 23:20:00 4.8 C 6.04 g/m*3 2.49 C 9.7 km/h
282 01-12-2016 23:25:00 4.8 C 6.04 g/m*3 2.49 C 9.7 km/h
283 01-12-2016 23:30:00 4.8 C 6.04 g/m*3 2.49 C 9.7 km/h
284 01-12-2016 23:35:00 4.8 C 6.04 g/m*3 2.49 C 9.7 km/h
285 01-12-2016 23:40:00 4.8 C 6.04 g/m*3 3.36 C 6.4 km/h
286 01-12-2016 23:45:00 4.8 C 6.04 g/m*3 2.49 C 9.7 km/h
287 01-12-2016 23:50:00 4.8 C 6.04 g/m*3 3.36 C 6.4 km/h
288 01-12-2016 23:55:00 4.8 C 6.04 g/m*3 3.36 C 6.4 km/h

Legende:
   Min
   Max


Maximal/Minimal-Werte vom 01.12.2016 - 01.12.2016

Sensor Min Max Avg
Temp
(Aussen-T/F)
0.9 °C
01-12-2016  00:00:00
4.8 °C
01-12-2016  21:15:00
3.39 °C
Abs-Feuchte
(Aussen-T/F)
4.21 g/m*3
01-12-2016  00:40:00
6.04 g/m*3
01-12-2016  21:15:00
5.17 g/m*3
Windchill
(Aussen-T/F)
-2.51 C
01-12-2016  00:50:00
4.8 C
01-12-2016  21:30:00
0.92 C

Die Daten stammen von einer Davis Vantage Pro 2 Wetter-Station und werden unter Linux mit der Software wview2wettercgi und aufbereitet. Alle Angaben erfolgen ohne Gewähr für ihre Vollständigkeit oder Richtigkeit.
Kontakt: Rainer Krienke krienke@uni-koblenz.de . Meine Webseiten an der Uni Koblenz oder privat.
Version: $Revision: 0.78 $